sensor_id;sensor_type;location;lat;lon;timestamp;temperature;humidity
3001;DHT22;1510;51.072;6.678;2024-02-15T00:02:21;12.20;99.90
3001;DHT22;1510;51.072;6.678;2024-02-15T00:04:48;12.20;99.90
3001;DHT22;1510;51.072;6.678;2024-02-15T00:07:15;12.20;99.90
3001;DHT22;1510;51.072;6.678;2024-02-15T00:09:43;12.20;99.90
3001;DHT22;1510;51.072;6.678;2024-02-15T00:12:10;12.10;99.90
3001;DHT22;1510;51.072;6.678;2024-02-15T00:14:37;12.10;99.90
3001;DHT22;1510;51.072;6.678;2024-02-15T00:17:04;12.10;99.90
3001;DHT22;1510;51.072;6.678;2024-02-15T00:19:31;12.10;99.90
3001;DHT22;1510;51.072;6.678;2024-02-15T00:21:57;12.00;99.90
3001;DHT22;1510;51.072;6.678;2024-02-15T00:24:25;12.10;99.90
3001;DHT22;1510;51.072;6.678;2024-02-15T00:26:54;12.00;99.90
3001;DHT22;1510;51.072;6.678;2024-02-15T00:29:20;12.10;99.90
3001;DHT22;1510;51.072;6.678;2024-02-15T00:31:47;12.10;99.90
3001;DHT22;1510;51.072;6.678;2024-02-15T00:34:15;12.10;99.90
3001;DHT22;1510;51.072;6.678;2024-02-15T00:36:43;12.20;99.90
3001;DHT22;1510;51.072;6.678;2024-02-15T00:39:10;12.20;99.90
3001;DHT22;1510;51.072;6.678;2024-02-15T00:41:40;12.30;99.90
3001;DHT22;1510;51.072;6.678;2024-02-15T00:44:08;12.20;99.90
3001;DHT22;1510;51.072;6.678;2024-02-15T00:46:36;12.20;99.90
3001;DHT22;1510;51.072;6.678;2024-02-15T00:49:02;12.30;99.90
3001;DHT22;1510;51.072;6.678;2024-02-15T00:51:31;12.20;99.90
3001;DHT22;1510;51.072;6.678;2024-02-15T00:53:58;12.20;99.90
3001;DHT22;1510;51.072;6.678;2024-02-15T00:56:25;12.30;99.90
3001;DHT22;1510;51.072;6.678;2024-02-15T00:58:53;12.20;99.90
3001;DHT22;1510;51.072;6.678;2024-02-15T01:01:22;12.20;99.90
3001;DHT22;1510;51.072;6.678;2024-02-15T01:03:48;12.20;99.90
3001;DHT22;1510;51.072;6.678;2024-02-15T01:06:15;12.20;99.90
3001;DHT22;1510;51.072;6.678;2024-02-15T01:08:42;12.20;99.90
3001;DHT22;1510;51.072;6.678;2024-02-15T01:11:09;12.20;99.90
3001;DHT22;1510;51.072;6.678;2024-02-15T01:13:36;12.20;99.90
3001;DHT22;1510;51.072;6.678;2024-02-15T01:16:03;12.30;99.90
3001;DHT22;1510;51.072;6.678;2024-02-15T01:18:31;12.20;99.90
3001;DHT22;1510;51.072;6.678;2024-02-15T01:20:58;12.20;99.90
3001;DHT22;1510;51.072;6.678;2024-02-15T01:23:25;12.20;99.90
3001;DHT22;1510;51.072;6.678;2024-02-15T01:25:52;12.20;99.90
3001;DHT22;1510;51.072;6.678;2024-02-15T01:28:19;12.20;99.90
3001;DHT22;1510;51.072;6.678;2024-02-15T01:30:45;12.20;99.90
3001;DHT22;1510;51.072;6.678;2024-02-15T01:33:12;12.10;99.90
3001;DHT22;1510;51.072;6.678;2024-02-15T01:35:41;12.10;99.90
3001;DHT22;1510;51.072;6.678;2024-02-15T01:38:07;12.10;99.90
3001;DHT22;1510;51.072;6.678;2024-02-15T01:40:34;12.00;99.90
3001;DHT22;1510;51.072;6.678;2024-02-15T01:43:01;12.10;99.90
3001;DHT22;1510;51.072;6.678;2024-02-15T01:45:28;12.10;99.90
3001;DHT22;1510;51.072;6.678;2024-02-15T01:47:56;12.00;99.90
3001;DHT22;1510;51.072;6.678;2024-02-15T01:50:23;12.20;99.90
3001;DHT22;1510;51.072;6.678;2024-02-15T01:52:53;12.00;99.90
3001;DHT22;1510;51.072;6.678;2024-02-15T01:55:22;12.10;99.90
3001;DHT22;1510;51.072;6.678;2024-02-15T01:57:49;12.10;99.90
3001;DHT22;1510;51.072;6.678;2024-02-15T02:00:18;12.10;99.90
3001;DHT22;1510;51.072;6.678;2024-02-15T02:02:45;12.10;99.90
3001;DHT22;1510;51.072;6.678;2024-02-15T02:05:12;12.20;99.90
3001;DHT22;1510;51.072;6.678;2024-02-15T02:07:39;12.10;99.90
3001;DHT22;1510;51.072;6.678;2024-02-15T02:10:09;12.20;99.90
3001;DHT22;1510;51.072;6.678;2024-02-15T02:12:37;12.20;99.90
3001;DHT22;1510;51.072;6.678;2024-02-15T02:15:06;12.20;99.90
3001;DHT22;1510;51.072;6.678;2024-02-15T02:17:33;12.20;99.90
3001;DHT22;1510;51.072;6.678;2024-02-15T02:20:01;12.10;99.90
3001;DHT22;1510;51.072;6.678;2024-02-15T02:22:34;12.10;99.90
3001;DHT22;1510;51.072;6.678;2024-02-15T02:25:05;12.10;99.90
3001;DHT22;1510;51.072;6.678;2024-02-15T02:27:34;12.10;99.90
3001;DHT22;1510;51.072;6.678;2024-02-15T02:30:03;12.20;99.90
3001;DHT22;1510;51.072;6.678;2024-02-15T02:32:32;12.30;99.90
3001;DHT22;1510;51.072;6.678;2024-02-15T02:35:00;12.30;99.90
3001;DHT22;1510;51.072;6.678;2024-02-15T02:37:27;12.30;99.90
3001;DHT22;1510;51.072;6.678;2024-02-15T02:39:54;12.40;99.90
3001;DHT22;1510;51.072;6.678;2024-02-15T02:42:22;12.40;99.90
3001;DHT22;1510;51.072;6.678;2024-02-15T02:44:49;12.30;99.90
3001;DHT22;1510;51.072;6.678;2024-02-15T02:47:15;12.40;99.90
3001;DHT22;1510;51.072;6.678;2024-02-15T02:49:43;12.40;99.90
3001;DHT22;1510;51.072;6.678;2024-02-15T02:52:09;12.40;99.90
3001;DHT22;1510;51.072;6.678;2024-02-15T02:54:36;12.40;99.90
3001;DHT22;1510;51.072;6.678;2024-02-15T02:57:03;12.40;99.90
3001;DHT22;1510;51.072;6.678;2024-02-15T02:59:33;12.40;99.90
3001;DHT22;1510;51.072;6.678;2024-02-15T03:02:01;12.40;99.90
3001;DHT22;1510;51.072;6.678;2024-02-15T03:04:29;12.30;99.90
3001;DHT22;1510;51.072;6.678;2024-02-15T03:06:57;12.30;99.90
3001;DHT22;1510;51.072;6.678;2024-02-15T03:09:24;12.20;99.90
3001;DHT22;1510;51.072;6.678;2024-02-15T03:11:55;12.20;99.90
3001;DHT22;1510;51.072;6.678;2024-02-15T03:14:21;12.20;99.90
3001;DHT22;1510;51.072;6.678;2024-02-15T03:16:49;12.20;99.90
3001;DHT22;1510;51.072;6.678;2024-02-15T03:19:16;12.20;99.90
3001;DHT22;1510;51.072;6.678;2024-02-15T03:21:43;12.30;99.90
3001;DHT22;1510;51.072;6.678;2024-02-15T03:24:12;12.10;99.90
3001;DHT22;1510;51.072;6.678;2024-02-15T03:26:39;12.00;99.90
3001;DHT22;1510;51.072;6.678;2024-02-15T03:29:06;12.00;99.90
3001;DHT22;1510;51.072;6.678;2024-02-15T03:31:33;11.90;99.90
3001;DHT22;1510;51.072;6.678;2024-02-15T03:34:03;11.80;99.90
3001;DHT22;1510;51.072;6.678;2024-02-15T03:36:30;11.70;99.90
3001;DHT22;1510;51.072;6.678;2024-02-15T03:38:57;11.70;99.90
3001;DHT22;1510;51.072;6.678;2024-02-15T03:41:26;11.50;99.90
3001;DHT22;1510;51.072;6.678;2024-02-15T03:43:53;11.50;99.90
3001;DHT22;1510;51.072;6.678;2024-02-15T03:46:20;11.50;99.90
3001;DHT22;1510;51.072;6.678;2024-02-15T03:48:49;11.40;99.90
3001;DHT22;1510;51.072;6.678;2024-02-15T03:51:18;11.40;99.90
3001;DHT22;1510;51.072;6.678;2024-02-15T03:53:46;11.30;99.90
3001;DHT22;1510;51.072;6.678;2024-02-15T03:56:14;11.30;99.90
3001;DHT22;1510;51.072;6.678;2024-02-15T03:58:41;11.20;99.90
3001;DHT22;1510;51.072;6.678;2024-02-15T04:01:08;11.10;99.90
3001;DHT22;1510;51.072;6.678;2024-02-15T04:03:35;11.10;99.90
3001;DHT22;1510;51.072;6.678;2024-02-15T04:06:01;11.00;99.90
3001;DHT22;1510;51.072;6.678;2024-02-15T04:08:30;11.00;99.90
3001;DHT22;1510;51.072;6.678;2024-02-15T04:10:56;11.00;99.90
3001;DHT22;1510;51.072;6.678;2024-02-15T04:13:23;10.90;99.90
3001;DHT22;1510;51.072;6.678;2024-02-15T04:15:50;10.90;99.90
3001;DHT22;1510;51.072;6.678;2024-02-15T04:18:18;10.90;99.90
3001;DHT22;1510;51.072;6.678;2024-02-15T04:20:45;10.90;99.90
3001;DHT22;1510;51.072;6.678;2024-02-15T04:23:14;10.80;99.90
3001;DHT22;1510;51.072;6.678;2024-02-15T04:25:42;10.80;99.90
3001;DHT22;1510;51.072;6.678;2024-02-15T04:28:09;10.90;99.90
3001;DHT22;1510;51.072;6.678;2024-02-15T04:30:36;11.00;99.90
3001;DHT22;1510;51.072;6.678;2024-02-15T04:33:06;11.00;99.90
3001;DHT22;1510;51.072;6.678;2024-02-15T04:35:33;11.00;99.90
3001;DHT22;1510;51.072;6.678;2024-02-15T04:38:01;11.20;99.90
3001;DHT22;1510;51.072;6.678;2024-02-15T04:40:29;11.10;99.90
3001;DHT22;1510;51.072;6.678;2024-02-15T04:42:57;11.10;99.90
3001;DHT22;1510;51.072;6.678;2024-02-15T04:45:24;11.20;99.90
3001;DHT22;1510;51.072;6.678;2024-02-15T04:47:51;11.20;99.90
3001;DHT22;1510;51.072;6.678;2024-02-15T04:50:19;11.20;99.90
3001;DHT22;1510;51.072;6.678;2024-02-15T04:52:46;11.20;99.90
3001;DHT22;1510;51.072;6.678;2024-02-15T04:55:15;11.20;99.90
3001;DHT22;1510;51.072;6.678;2024-02-15T04:57:43;11.20;99.90
3001;DHT22;1510;51.072;6.678;2024-02-15T05:00:12;11.20;99.90
3001;DHT22;1510;51.072;6.678;2024-02-15T05:02:40;11.20;99.90
3001;DHT22;1510;51.072;6.678;2024-02-15T05:05:09;11.30;99.90
3001;DHT22;1510;51.072;6.678;2024-02-15T05:07:38;11.30;99.90
3001;DHT22;1510;51.072;6.678;2024-02-15T05:10:06;11.50;99.90
3001;DHT22;1510;51.072;6.678;2024-02-15T05:12:34;11.40;99.90
3001;DHT22;1510;51.072;6.678;2024-02-15T05:15:01;11.40;99.90
3001;DHT22;1510;51.072;6.678;2024-02-15T05:17:37;11.40;99.90
3001;DHT22;1510;51.072;6.678;2024-02-15T05:20:07;11.40;99.90
3001;DHT22;1510;51.072;6.678;2024-02-15T05:22:36;11.40;99.90
3001;DHT22;1510;51.072;6.678;2024-02-15T05:25:05;11.40;99.90
3001;DHT22;1510;51.072;6.678;2024-02-15T05:27:31;11.50;99.90
3001;DHT22;1510;51.072;6.678;2024-02-15T05:29:58;11.40;99.90
3001;DHT22;1510;51.072;6.678;2024-02-15T05:32:25;11.40;99.90
3001;DHT22;1510;51.072;6.678;2024-02-15T05:34:54;11.50;99.90
3001;DHT22;1510;51.072;6.678;2024-02-15T05:37:21;11.70;99.90
3001;DHT22;1510;51.072;6.678;2024-02-15T05:39:48;11.60;99.90
3001;DHT22;1510;51.072;6.678;2024-02-15T05:42:19;11.60;99.90
3001;DHT22;1510;51.072;6.678;2024-02-15T05:44:46;11.60;99.90
3001;DHT22;1510;51.072;6.678;2024-02-15T05:47:13;11.80;99.90
3001;DHT22;1510;51.072;6.678;2024-02-15T05:49:40;11.80;99.90
3001;DHT22;1510;51.072;6.678;2024-02-15T05:52:08;11.90;99.90
3001;DHT22;1510;51.072;6.678;2024-02-15T05:54:35;11.90;99.90
3001;DHT22;1510;51.072;6.678;2024-02-15T05:57:01;11.80;99.90
3001;DHT22;1510;51.072;6.678;2024-02-15T05:59:28;11.80;99.90
3001;DHT22;1510;51.072;6.678;2024-02-15T06:01:55;11.80;99.90
3001;DHT22;1510;51.072;6.678;2024-02-15T06:04:22;11.80;99.90
3001;DHT22;1510;51.072;6.678;2024-02-15T06:06:50;11.80;99.90
3001;DHT22;1510;51.072;6.678;2024-02-15T06:09:20;11.70;99.90
3001;DHT22;1510;51.072;6.678;2024-02-15T06:11:50;11.70;99.90
3001;DHT22;1510;51.072;6.678;2024-02-15T06:14:20;11.50;99.90
3001;DHT22;1510;51.072;6.678;2024-02-15T06:16:47;11.50;99.90
3001;DHT22;1510;51.072;6.678;2024-02-15T06:19:14;11.40;99.90
3001;DHT22;1510;51.072;6.678;2024-02-15T06:21:41;11.40;99.90
3001;DHT22;1510;51.072;6.678;2024-02-15T06:24:09;11.40;99.90
3001;DHT22;1510;51.072;6.678;2024-02-15T06:26:37;11.40;99.90
3001;DHT22;1510;51.072;6.678;2024-02-15T06:29:04;11.40;99.90
3001;DHT22;1510;51.072;6.678;2024-02-15T06:31:48;11.50;99.90
3001;DHT22;1510;51.072;6.678;2024-02-15T06:34:33;11.50;99.90
3001;DHT22;1510;51.072;6.678;2024-02-15T06:37:35;11.70;99.90
3001;DHT22;1510;51.072;6.678;2024-02-15T06:40:20;11.40;99.90
3001;DHT22;1510;51.072;6.678;2024-02-15T06:42:48;11.40;99.90
3001;DHT22;1510;51.072;6.678;2024-02-15T06:45:14;11.30;99.90
3001;DHT22;1510;51.072;6.678;2024-02-15T06:47:42;11.30;99.90
3001;DHT22;1510;51.072;6.678;2024-02-15T06:50:10;11.30;99.90
3001;DHT22;1510;51.072;6.678;2024-02-15T06:52:37;11.30;99.90
3001;DHT22;1510;51.072;6.678;2024-02-15T06:55:06;11.40;99.90
3001;DHT22;1510;51.072;6.678;2024-02-15T06:57:34;11.30;99.90
3001;DHT22;1510;51.072;6.678;2024-02-15T07:00:03;11.20;99.90
3001;DHT22;1510;51.072;6.678;2024-02-15T07:02:33;11.30;99.90
3001;DHT22;1510;51.072;6.678;2024-02-15T07:05:00;11.30;99.90
3001;DHT22;1510;51.072;6.678;2024-02-15T07:07:28;11.20;99.90
3001;DHT22;1510;51.072;6.678;2024-02-15T07:09:55;11.20;99.90
3001;DHT22;1510;51.072;6.678;2024-02-15T07:12:22;11.30;99.90
3001;DHT22;1510;51.072;6.678;2024-02-15T07:14:49;11.30;99.90
3001;DHT22;1510;51.072;6.678;2024-02-15T07:17:18;11.30;99.90
3001;DHT22;1510;51.072;6.678;2024-02-15T07:19:45;11.30;99.90
3001;DHT22;1510;51.072;6.678;2024-02-15T07:22:14;11.30;99.90
3001;DHT22;1510;51.072;6.678;2024-02-15T07:24:42;11.40;99.90
3001;DHT22;1510;51.072;6.678;2024-02-15T07:27:09;11.30;99.90
3001;DHT22;1510;51.072;6.678;2024-02-15T07:29:37;11.30;99.90
3001;DHT22;1510;51.072;6.678;2024-02-15T07:32:04;11.30;99.90
3001;DHT22;1510;51.072;6.678;2024-02-15T07:34:33;11.30;99.90
3001;DHT22;1510;51.072;6.678;2024-02-15T07:37:01;11.30;99.90
3001;DHT22;1510;51.072;6.678;2024-02-15T07:39:28;11.30;99.90
3001;DHT22;1510;51.072;6.678;2024-02-15T07:41:55;11.30;99.90
3001;DHT22;1510;51.072;6.678;2024-02-15T07:44:23;11.30;99.90
3001;DHT22;1510;51.072;6.678;2024-02-15T07:46:51;11.50;99.90
3001;DHT22;1510;51.072;6.678;2024-02-15T07:49:17;11.30;99.90
3001;DHT22;1510;51.072;6.678;2024-02-15T07:51:46;11.30;99.90
3001;DHT22;1510;51.072;6.678;2024-02-15T07:54:18;11.30;99.90
3001;DHT22;1510;51.072;6.678;2024-02-15T07:56:46;11.30;99.90
3001;DHT22;1510;51.072;6.678;2024-02-15T07:59:13;11.30;99.90
3001;DHT22;1510;51.072;6.678;2024-02-15T08:01:42;11.20;99.90
3001;DHT22;1510;51.072;6.678;2024-02-15T08:04:08;11.20;99.90
3001;DHT22;1510;51.072;6.678;2024-02-15T08:06:35;11.20;99.90
3001;DHT22;1510;51.072;6.678;2024-02-15T08:09:04;11.30;99.90
3001;DHT22;1510;51.072;6.678;2024-02-15T08:11:32;11.30;99.90
3001;DHT22;1510;51.072;6.678;2024-02-15T08:13:58;11.30;99.90
3001;DHT22;1510;51.072;6.678;2024-02-15T08:16:26;11.30;99.90
3001;DHT22;1510;51.072;6.678;2024-02-15T08:18:53;11.30;99.90
3001;DHT22;1510;51.072;6.678;2024-02-15T08:21:25;11.30;99.90
3001;DHT22;1510;51.072;6.678;2024-02-15T08:23:52;11.40;99.90
3001;DHT22;1510;51.072;6.678;2024-02-15T08:26:20;11.40;99.90
3001;DHT22;1510;51.072;6.678;2024-02-15T08:28:46;11.50;99.90
3001;DHT22;1510;51.072;6.678;2024-02-15T08:31:13;11.50;99.90
3001;DHT22;1510;51.072;6.678;2024-02-15T08:33:40;11.60;99.90
3001;DHT22;1510;51.072;6.678;2024-02-15T08:36:08;11.60;99.90
3001;DHT22;1510;51.072;6.678;2024-02-15T08:38:36;11.70;99.90
3001;DHT22;1510;51.072;6.678;2024-02-15T08:41:03;11.90;99.90
3001;DHT22;1510;51.072;6.678;2024-02-15T08:43:34;11.90;99.90
3001;DHT22;1510;51.072;6.678;2024-02-15T08:46:00;12.10;99.90
3001;DHT22;1510;51.072;6.678;2024-02-15T08:48:27;12.10;99.90
3001;DHT22;1510;51.072;6.678;2024-02-15T08:50:56;12.10;99.90
3001;DHT22;1510;51.072;6.678;2024-02-15T08:53:22;12.10;99.90
3001;DHT22;1510;51.072;6.678;2024-02-15T08:55:50;12.10;99.90
3001;DHT22;1510;51.072;6.678;2024-02-15T08:58:18;12.10;99.90
3001;DHT22;1510;51.072;6.678;2024-02-15T09:00:48;12.20;99.90
3001;DHT22;1510;51.072;6.678;2024-02-15T09:03:15;12.30;99.90
3001;DHT22;1510;51.072;6.678;2024-02-15T09:05:41;12.20;99.90
3001;DHT22;1510;51.072;6.678;2024-02-15T09:08:08;12.20;99.90
3001;DHT22;1510;51.072;6.678;2024-02-15T09:10:35;12.30;99.90
3001;DHT22;1510;51.072;6.678;2024-02-15T09:13:04;12.30;99.90
3001;DHT22;1510;51.072;6.678;2024-02-15T09:15:32;12.30;99.90
3001;DHT22;1510;51.072;6.678;2024-02-15T09:18:00;12.40;99.90
3001;DHT22;1510;51.072;6.678;2024-02-15T09:20:27;12.40;99.90
3001;DHT22;1510;51.072;6.678;2024-02-15T09:22:55;12.60;99.90
3001;DHT22;1510;51.072;6.678;2024-02-15T09:25:23;12.50;99.90
3001;DHT22;1510;51.072;6.678;2024-02-15T09:27:50;12.60;99.90
3001;DHT22;1510;51.072;6.678;2024-02-15T09:30:17;12.80;99.90
3001;DHT22;1510;51.072;6.678;2024-02-15T09:32:45;12.90;99.90
3001;DHT22;1510;51.072;6.678;2024-02-15T09:35:13;12.90;99.90
3001;DHT22;1510;51.072;6.678;2024-02-15T09:37:44;13.00;99.90
3001;DHT22;1510;51.072;6.678;2024-02-15T09:40:12;13.10;99.90
3001;DHT22;1510;51.072;6.678;2024-02-15T09:42:40;13.10;99.90
3001;DHT22;1510;51.072;6.678;2024-02-15T09:45:08;13.20;99.90
3001;DHT22;1510;51.072;6.678;2024-02-15T09:47:37;13.20;99.90
3001;DHT22;1510;51.072;6.678;2024-02-15T09:50:06;13.20;99.90
3001;DHT22;1510;51.072;6.678;2024-02-15T09:52:35;13.20;99.90
3001;DHT22;1510;51.072;6.678;2024-02-15T09:55:03;13.20;99.90
3001;DHT22;1510;51.072;6.678;2024-02-15T09:57:30;13.20;99.90
3001;DHT22;1510;51.072;6.678;2024-02-15T09:59:58;13.20;99.90
3001;DHT22;1510;51.072;6.678;2024-02-15T10:02:26;13.30;99.90
3001;DHT22;1510;51.072;6.678;2024-02-15T10:04:53;13.30;99.90
3001;DHT22;1510;51.072;6.678;2024-02-15T10:07:22;13.30;99.90
3001;DHT22;1510;51.072;6.678;2024-02-15T10:09:50;13.30;99.90
3001;DHT22;1510;51.072;6.678;2024-02-15T10:12:17;13.40;99.90
3001;DHT22;1510;51.072;6.678;2024-02-15T10:14:48;13.50;99.90
3001;DHT22;1510;51.072;6.678;2024-02-15T10:17:18;13.60;99.90
3001;DHT22;1510;51.072;6.678;2024-02-15T10:19:48;13.70;99.90
3001;DHT22;1510;51.072;6.678;2024-02-15T10:22:28;13.80;99.90
3001;DHT22;1510;51.072;6.678;2024-02-15T10:25:10;14.10;99.90
3001;DHT22;1510;51.072;6.678;2024-02-15T10:27:37;14.30;99.90
3001;DHT22;1510;51.072;6.678;2024-02-15T10:30:15;14.20;99.90
3001;DHT22;1510;51.072;6.678;2024-02-15T10:32:43;14.30;99.90
3001;DHT22;1510;51.072;6.678;2024-02-15T10:35:10;14.40;99.90
3001;DHT22;1510;51.072;6.678;2024-02-15T10:37:41;14.60;99.90
3001;DHT22;1510;51.072;6.678;2024-02-15T10:40:11;14.60;99.90
3001;DHT22;1510;51.072;6.678;2024-02-15T10:42:40;14.80;99.90
3001;DHT22;1510;51.072;6.678;2024-02-15T10:45:09;15.00;99.90
3001;DHT22;1510;51.072;6.678;2024-02-15T10:47:37;15.20;99.90
3001;DHT22;1510;51.072;6.678;2024-02-15T10:50:06;15.30;99.90
3001;DHT22;1510;51.072;6.678;2024-02-15T10:52:36;15.50;99.90
3001;DHT22;1510;51.072;6.678;2024-02-15T10:55:06;15.70;99.90
3001;DHT22;1510;51.072;6.678;2024-02-15T10:57:44;15.90;99.90
3001;DHT22;1510;51.072;6.678;2024-02-15T11:00:14;16.00;99.90
3001;DHT22;1510;51.072;6.678;2024-02-15T11:02:52;16.00;99.90
3001;DHT22;1510;51.072;6.678;2024-02-15T11:05:21;16.10;99.90
3001;DHT22;1510;51.072;6.678;2024-02-15T11:07:49;16.20;99.90
3001;DHT22;1510;51.072;6.678;2024-02-15T11:10:17;16.30;99.90
3001;DHT22;1510;51.072;6.678;2024-02-15T11:12:46;16.40;99.90
3001;DHT22;1510;51.072;6.678;2024-02-15T11:15:43;16.40;99.90
3001;DHT22;1510;51.072;6.678;2024-02-15T11:18:43;16.50;99.90
3001;DHT22;1510;51.072;6.678;2024-02-15T11:21:11;16.70;99.90
3001;DHT22;1510;51.072;6.678;2024-02-15T11:23:38;16.80;99.90
3001;DHT22;1510;51.072;6.678;2024-02-15T11:26:08;16.70;99.90
3001;DHT22;1510;51.072;6.678;2024-02-15T11:28:45;16.80;99.90
3001;DHT22;1510;51.072;6.678;2024-02-15T11:34:42;16.70;99.90
3001;DHT22;1510;51.072;6.678;2024-02-15T11:37:14;16.70;99.90
3001;DHT22;1510;51.072;6.678;2024-02-15T11:40:03;16.60;99.90
3001;DHT22;1510;51.072;6.678;2024-02-15T11:42:29;16.60;99.90
3001;DHT22;1510;51.072;6.678;2024-02-15T11:45:05;16.60;99.90
3001;DHT22;1510;51.072;6.678;2024-02-15T11:47:36;16.70;99.90
3001;DHT22;1510;51.072;6.678;2024-02-15T11:50:05;16.60;99.90
3001;DHT22;1510;51.072;6.678;2024-02-15T11:52:34;16.90;99.90
3001;DHT22;1510;51.072;6.678;2024-02-15T11:55:07;17.00;99.90
3001;DHT22;1510;51.072;6.678;2024-02-15T11:57:36;17.30;99.90
3001;DHT22;1510;51.072;6.678;2024-02-15T12:00:21;17.50;99.90
3001;DHT22;1510;51.072;6.678;2024-02-15T12:03:06;17.50;99.90
3001;DHT22;1510;51.072;6.678;2024-02-15T12:05:50;17.70;99.90
3001;DHT22;1510;51.072;6.678;2024-02-15T12:08:35;17.90;99.90
3001;DHT22;1510;51.072;6.678;2024-02-15T12:11:19;18.20;99.90
3001;DHT22;1510;51.072;6.678;2024-02-15T12:14:04;18.00;99.90
3001;DHT22;1510;51.072;6.678;2024-02-15T12:17:03;17.90;99.90
3001;DHT22;1510;51.072;6.678;2024-02-15T12:19:49;17.90;99.90
3001;DHT22;1510;51.072;6.678;2024-02-15T12:22:18;17.80;99.90
3001;DHT22;1510;51.072;6.678;2024-02-15T12:24:53;17.90;99.90
3001;DHT22;1510;51.072;6.678;2024-02-15T12:27:21;18.00;99.90
3001;DHT22;1510;51.072;6.678;2024-02-15T12:29:53;18.00;99.90
3001;DHT22;1510;51.072;6.678;2024-02-15T12:32:22;18.00;99.90
3001;DHT22;1510;51.072;6.678;2024-02-15T12:34:49;18.00;99.90
3001;DHT22;1510;51.072;6.678;2024-02-15T12:37:18;18.20;99.90
3001;DHT22;1510;51.072;6.678;2024-02-15T12:39:46;18.30;99.50
3001;DHT22;1510;51.072;6.678;2024-02-15T12:42:13;18.30;97.80
3001;DHT22;1510;51.072;6.678;2024-02-15T12:44:45;18.20;99.90
3001;DHT22;1510;51.072;6.678;2024-02-15T12:47:19;18.10;97.00
3001;DHT22;1510;51.072;6.678;2024-02-15T12:49:48;18.00;97.70
3001;DHT22;1510;51.072;6.678;2024-02-15T12:52:33;17.90;94.20
3001;DHT22;1510;51.072;6.678;2024-02-15T12:55:11;17.90;97.60
3001;DHT22;1510;51.072;6.678;2024-02-15T12:57:38;17.70;99.90
3001;DHT22;1510;51.072;6.678;2024-02-15T13:00:07;17.70;99.90
3001;DHT22;1510;51.072;6.678;2024-02-15T13:02:39;17.60;98.60
3001;DHT22;1510;51.072;6.678;2024-02-15T13:05:08;17.60;99.90
3001;DHT22;1510;51.072;6.678;2024-02-15T13:07:36;17.60;99.00
3001;DHT22;1510;51.072;6.678;2024-02-15T13:10:03;17.50;99.90
3001;DHT22;1510;51.072;6.678;2024-02-15T13:12:33;17.50;97.40
3001;DHT22;1510;51.072;6.678;2024-02-15T13:15:02;17.50;99.90
3001;DHT22;1510;51.072;6.678;2024-02-15T13:17:30;17.50;99.10
3001;DHT22;1510;51.072;6.678;2024-02-15T13:19:57;17.40;99.90
3001;DHT22;1510;51.072;6.678;2024-02-15T13:22:31;17.50;99.90
3001;DHT22;1510;51.072;6.678;2024-02-15T13:24:59;17.50;99.90
3001;DHT22;1510;51.072;6.678;2024-02-15T13:27:28;17.50;99.90
3001;DHT22;1510;51.072;6.678;2024-02-15T13:29:56;17.50;99.90
3001;DHT22;1510;51.072;6.678;2024-02-15T13:32:23;17.50;99.90
3001;DHT22;1510;51.072;6.678;2024-02-15T13:34:50;17.60;98.30
3001;DHT22;1510;51.072;6.678;2024-02-15T13:37:21;17.80;99.90
3001;DHT22;1510;51.072;6.678;2024-02-15T13:39:50;17.90;99.90
3001;DHT22;1510;51.072;6.678;2024-02-15T13:42:17;18.00;99.40
3001;DHT22;1510;51.072;6.678;2024-02-15T13:44:44;18.10;97.70
3001;DHT22;1510;51.072;6.678;2024-02-15T13:47:12;18.20;94.40
3001;DHT22;1510;51.072;6.678;2024-02-15T13:49:41;18.20;94.40
3001;DHT22;1510;51.072;6.678;2024-02-15T13:52:08;18.10;94.30
3001;DHT22;1510;51.072;6.678;2024-02-15T13:54:36;18.10;94.30
3001;DHT22;1510;51.072;6.678;2024-02-15T13:57:05;18.20;94.40
3001;DHT22;1510;51.072;6.678;2024-02-15T13:59:32;18.10;94.30
3001;DHT22;1510;51.072;6.678;2024-02-15T14:02:00;17.90;94.20
3001;DHT22;1510;51.072;6.678;2024-02-15T14:04:29;17.90;94.20
3001;DHT22;1510;51.072;6.678;2024-02-15T14:06:57;17.90;94.20
3001;DHT22;1510;51.072;6.678;2024-02-15T14:09:25;17.90;94.20
3001;DHT22;1510;51.072;6.678;2024-02-15T14:11:53;17.70;94.10
3001;DHT22;1510;51.072;6.678;2024-02-15T14:14:21;17.70;94.10
3001;DHT22;1510;51.072;6.678;2024-02-15T14:16:48;17.60;94.10
3001;DHT22;1510;51.072;6.678;2024-02-15T14:19:15;17.70;94.10
3001;DHT22;1510;51.072;6.678;2024-02-15T14:21:43;17.80;94.20
3001;DHT22;1510;51.072;6.678;2024-02-15T14:24:10;17.90;94.20
3001;DHT22;1510;51.072;6.678;2024-02-15T14:26:37;17.90;94.30
3001;DHT22;1510;51.072;6.678;2024-02-15T14:29:04;18.00;94.30
3001;DHT22;1510;51.072;6.678;2024-02-15T14:31:32;17.80;91.70
3001;DHT22;1510;51.072;6.678;2024-02-15T14:34:16;17.70;94.10
3001;DHT22;1510;51.072;6.678;2024-02-15T14:36:46;17.60;94.10
3001;DHT22;1510;51.072;6.678;2024-02-15T14:39:13;17.60;94.10
3001;DHT22;1510;51.072;6.678;2024-02-15T14:41:40;17.50;94.10
3001;DHT22;1510;51.072;6.678;2024-02-15T14:44:09;17.30;94.00
3001;DHT22;1510;51.072;6.678;2024-02-15T14:46:37;17.20;93.90
3001;DHT22;1510;51.072;6.678;2024-02-15T14:49:05;17.30;94.00
3001;DHT22;1510;51.072;6.678;2024-02-15T14:51:33;17.00;93.90
3001;DHT22;1510;51.072;6.678;2024-02-15T14:54:02;17.00;93.90
3001;DHT22;1510;51.072;6.678;2024-02-15T14:56:29;16.60;93.70
3001;DHT22;1510;51.072;6.678;2024-02-15T14:58:57;16.50;93.70
3001;DHT22;1510;51.072;6.678;2024-02-15T15:01:24;16.40;93.60
3001;DHT22;1510;51.072;6.678;2024-02-15T15:03:55;16.30;95.00
3001;DHT22;1510;51.072;6.678;2024-02-15T15:06:24;16.40;97.00
3001;DHT22;1510;51.072;6.678;2024-02-15T15:09:09;16.20;99.90
3001;DHT22;1510;51.072;6.678;2024-02-15T15:11:54;16.10;99.90
3001;DHT22;1510;51.072;6.678;2024-02-15T15:14:39;16.10;99.90
3001;DHT22;1510;51.072;6.678;2024-02-15T15:17:07;16.00;99.90
3001;DHT22;1510;51.072;6.678;2024-02-15T15:19:36;16.00;99.90
3001;DHT22;1510;51.072;6.678;2024-02-15T15:22:03;16.00;99.90
3001;DHT22;1510;51.072;6.678;2024-02-15T15:24:33;15.90;99.90
3001;DHT22;1510;51.072;6.678;2024-02-15T15:26:59;15.90;99.90
3001;DHT22;1510;51.072;6.678;2024-02-15T15:29:27;15.80;99.90
3001;DHT22;1510;51.072;6.678;2024-02-15T15:31:53;15.80;99.90
3001;DHT22;1510;51.072;6.678;2024-02-15T15:34:21;15.80;99.90
3001;DHT22;1510;51.072;6.678;2024-02-15T15:36:49;15.80;99.90
3001;DHT22;1510;51.072;6.678;2024-02-15T15:39:20;15.70;99.90
3001;DHT22;1510;51.072;6.678;2024-02-15T15:41:50;15.60;99.90
3001;DHT22;1510;51.072;6.678;2024-02-15T15:44:19;15.60;99.90
3001;DHT22;1510;51.072;6.678;2024-02-15T15:46:48;15.50;99.90
3001;DHT22;1510;51.072;6.678;2024-02-15T15:49:15;15.40;99.90
3001;DHT22;1510;51.072;6.678;2024-02-15T15:51:42;15.40;99.90
3001;DHT22;1510;51.072;6.678;2024-02-15T15:54:10;15.40;99.90
3001;DHT22;1510;51.072;6.678;2024-02-15T15:56:37;15.40;99.90
3001;DHT22;1510;51.072;6.678;2024-02-15T15:59:04;15.50;99.90
3001;DHT22;1510;51.072;6.678;2024-02-15T16:01:31;15.50;99.90
3001;DHT22;1510;51.072;6.678;2024-02-15T16:03:58;15.50;99.90
3001;DHT22;1510;51.072;6.678;2024-02-15T16:06:24;15.50;99.90
3001;DHT22;1510;51.072;6.678;2024-02-15T16:08:51;15.60;99.90
3001;DHT22;1510;51.072;6.678;2024-02-15T16:11:20;15.60;99.90
3001;DHT22;1510;51.072;6.678;2024-02-15T16:13:47;15.50;99.90
3001;DHT22;1510;51.072;6.678;2024-02-15T16:16:15;15.40;99.90
3001;DHT22;1510;51.072;6.678;2024-02-15T16:18:42;15.40;99.90